33.9°F
Current conditions from King Hill
Updated every 5 minutes
 
  Wednesday November 26, 2014

Station Historical Data
Daily Summary for March 30, 2011 Units:  Metric    English   Both
« Previous Day
Next Day »
Daily Weekly Monthly Yearly Custom
  High: Low: Average:
Temperature: 7.5 °C -1.9 °C 2.1 °C
Dew Point: -4.2 °C -7.3 °C -5.7 °C
Humidity: 76% 35% 58%
Wind Speed: 12.9km/h 1.6km/h 3.7km/h
Wind Gust: 22.5km/h - -
Wind- - West
Pressure: 1019.9 hPa 1014.4 hPa -
Precipitation: 0 mm    
Historical Graphs
 
 
Tabular Data for March 30, 2011
Time Temperature Dew Point Pressure Wind Wind Speed Wind Gust Humidity Daily Rainfall
00:05 -0.3 °C -5.5 °C 1018.8 hPa NW 3.2 km/h 11.3 km/h 68% 0 mm
00:10 -0.3 °C -5.5 °C 1018.8 hPa NW 4.8 km/h 11.3 km/h 68% 0 mm
00:15 -0.5 °C -5.9 °C 1018.8 hPa NW 3.2 km/h 9.7 km/h 67% 0 mm
00:20 -0.7 °C -5.8 °C 1018.8 hPa NW 3.2 km/h 8 km/h 68% 0 mm
00:25 -0.7 °C -5.9 °C 1018.8 hPa NNW 1.6 km/h 12.9 km/h 68% 0 mm
00:30 -0.7 °C -5.7 °C 1018.8 hPa WNW 4.8 km/h 12.9 km/h 69% 0 mm
00:35 -0.7 °C -5.9 °C 1018.8 hPa NW 1.6 km/h 8 km/h 68% 0 mm
00:40 -0.8 °C -5.8 °C 1018.8 hPa NW 3.2 km/h 9.7 km/h 69% 0 mm
00:45 -0.8 °C -5.8 °C 1018.8 hPa NW 1.6 km/h 9.7 km/h 69% 0 mm
00:50 -0.9 °C -5.8 °C 1018.8 hPa NW 3.2 km/h 6.4 km/h 69% 0 mm
00:55 -0.9 °C -5.9 °C 1018.8 hPa NW 3.2 km/h 8 km/h 69% 0 mm
01:00 -0.8 °C -5.8 °C 1018.8 hPa NW 3.2 km/h 8 km/h 69% 0 mm
01:05 -0.7 °C -5.7 °C 1018.8 hPa NW 4.8 km/h 9.7 km/h 69% 0 mm
01:10 -0.7 °C -5.8 °C 1018.8 hPa WNW 1.6 km/h 11.3 km/h 68% 0 mm
01:15 -0.9 °C -5.8 °C 1018.8 hPa Calm   11.3 km/h 69% 0 mm
01:20 -1.2 °C -6.1 °C 1018.8 hPa WNW 1.6 km/h 4.8 km/h 69% 0 mm
01:25 -1.2 °C -6 °C 1018.8 hPa NW 3.2 km/h 6.4 km/h 70% 0 mm
01:30 -1.2 °C -6 °C 1018.8 hPa NW 1.6 km/h 6.4 km/h 70% 0 mm
01:35 -1.3 °C -5.8 °C 1018.8 hPa NW 1.6 km/h 4.8 km/h 71% 0 mm
01:40 -1.3 °C -5.8 °C 1018.8 hPa Calm   4.8 km/h 71% 0 mm
01:45 -1.3 °C -5.7 °C 1018.8 hPa Calm   4.8 km/h 72% 0 mm
01:50 -1.2 °C -5.6 °C 1018.8 hPa Calm   8 km/h 72% 0 mm
01:55 -0.9 °C -5.6 °C 1018.8 hPa WNW 1.6 km/h 8 km/h 71% 0 mm
02:00 -0.7 °C -5.3 °C 1018.8 hPa WNW 4.8 km/h 11.3 km/h 71% 0 mm
02:05 -0.4 °C -5.2 °C 1018.8 hPa NNW 1.6 km/h 11.3 km/h 70% 0 mm
02:10 -0.3 °C -5.3 °C 1018.8 hPa Calm   9.7 km/h 69% 0 mm
02:15 -0.2 °C -5.2 °C 1018.8 hPa NW 3.2 km/h 6.4 km/h 69% 0 mm
02:20 -0.1 °C -5.3 °C 1018.8 hPa NNW 4.8 km/h 9.7 km/h 68% 0 mm
02:25 0 °C -5.2 °C 1018.8 hPa Calm   9.7 km/h 68% 0 mm
02:30 0 °C -5.2 °C 1018.8 hPa Calm   4.8 km/h 68% 0 mm
02:35 0 °C -5.2 °C 1018.8 hPa Calm   4.8 km/h 68% 0 mm
02:45 0 °C -5.2 °C 1018.5 hPa Calm   4.8 km/h 68% 0 mm
02:50 0 °C -5.2 °C 1018.5 hPa Calm   4.8 km/h 68% 0 mm
02:55 0 °C -5.2 °C 1018.5 hPa Calm   4.8 km/h 68% 0 mm
03:00 0 °C -5.2 °C 1018.5 hPa Calm   3.2 km/h 68% 0 mm
03:05 0 °C -5.2 °C 1018.5 hPa NW 1.6 km/h 4.8 km/h 68% 0 mm
03:25 0.1 °C -5.2 °C 1018.5 hPa NW 3.2 km/h 4.8 km/h 68% 0 mm
03:30 0.1 °C -5.2 °C 1018.5 hPa NW 3.2 km/h 8 km/h 68% 0 mm
03:35 0.1 °C -5.1 °C 1018.5 hPa NW 3.2 km/h 8 km/h 68% 0 mm
03:55 0.2 °C -5 °C 1018.2 hPa NNW 3.2 km/h 8 km/h 68% 0 mm
04:00 0.2 °C -5 °C 1018.2 hPa NNW 4.8 km/h 9.7 km/h 68% 0 mm
04:05 0.2 °C -5 °C 1018.5 hPa NW 3.2 km/h 9.7 km/h 68% 0 mm
04:10 0.2 °C -5.1 °C 1018.2 hPa Calm   11.3 km/h 68% 0 mm
04:15 -0.1 °C -5.3 °C 1018.2 hPa NNW 1.6 km/h 11.3 km/h 68% 0 mm
04:20 -0.2 °C -5.2 °C 1018.5 hPa NNW 1.6 km/h 12.9 km/h 69% 0 mm
04:25 -0.3 °C -5.3 °C 1018.5 hPa NNW 1.6 km/h 12.9 km/h 69% 0 mm
04:30 -0.5 °C -5.5 °C 1018.5 hPa NW 1.6 km/h 6.4 km/h 69% 0 mm
04:35 -0.6 °C -5.4 °C 1018.5 hPa Calm   6.4 km/h 70% 0 mm
04:40 -0.6 °C -5.2 °C 1018.5 hPa Calm   6.4 km/h 71% 0 mm
04:45 -0.6 °C -5.2 °C 1018.5 hPa Calm   6.4 km/h 71% 0 mm
04:50 -0.7 °C -5.3 °C 1018.5 hPa NW 1.6 km/h 3.2 km/h 71% 0 mm
04:55 -0.7 °C -5.3 °C 1018.5 hPa Calm   3.2 km/h 71% 0 mm
05:00 -0.7 °C -5.2 °C 1018.5 hPa Calm   6.4 km/h 72% 0 mm
05:05 -0.7 °C -5.2 °C 1018.5 hPa NW 1.6 km/h 6.4 km/h 72% 0 mm
05:10 -0.7 °C -5.1 °C 1018.5 hPa NW 1.6 km/h 6.4 km/h 72% 0 mm
05:15 -0.6 °C -5.1 °C 1018.5 hPa Calm   3.2 km/h 72% 0 mm
05:20 -0.6 °C -5.1 °C 1018.5 hPa Calm   3.2 km/h 72% 0 mm
05:25 -0.7 °C -5.2 °C 1018.5 hPa Calm   3.2 km/h 72% 0 mm
05:30 -0.8 °C -5.2 °C 1018.5 hPa Calm   1.6 km/h 72% 0 mm
05:35 -0.9 °C -5.3 °C 1018.5 hPa Calm   3.2 km/h 72% 0 mm
05:40 -1.1 °C -5.3 °C 1018.5 hPa NW 1.6 km/h 4.8 km/h 73% 0 mm
05:45 -1.1 °C -5.3 °C 1018.8 hPa Calm   4.8 km/h 73% 0 mm
05:50 -1.1 °C -5.3 °C 1018.8 hPa WNW 1.6 km/h 6.4 km/h 73% 0 mm
05:55 -1.1 °C -5.3 °C 1018.8 hPa WNW 3.2 km/h 6.4 km/h 73% 0 mm
06:00 -1.1 °C -5.3 °C 1018.8 hPa WNW 1.6 km/h 6.4 km/h 73% 0 mm
06:05 -1 °C -5.2 °C 1018.8 hPa WNW 3.2 km/h 8 km/h 73% 0 mm
06:10 -1.1 °C -5.3 °C 1018.8 hPa Calm   8 km/h 73% 0 mm
06:15 -1.1 °C -5.3 °C 1018.8 hPa NW 1.6 km/h 6.4 km/h 73% 0 mm
06:20 -1.2 °C -5.4 °C 1018.8 hPa Calm   6.4 km/h 73% 0 mm
06:25 -1.3 °C -5.6 °C 1018.8 hPa Calm   4.8 km/h 73% 0 mm
06:30 -1.4 °C -5.4 °C 1019.2 hPa Calm     74% 0 mm
06:35 -1.4 °C -5.2 °C 1018.8 hPa Calm   3.2 km/h 75% 0 mm
06:40 -1.3 °C -5.1 °C 1019.2 hPa Calm   3.2 km/h 75% 0 mm
06:45 -1.2 °C -5.3 °C 1019.2 hPa West 1.6 km/h 4.8 km/h 74% 0 mm
06:50 -1.2 °C -5.2 °C 1019.2 hPa WNW 1.6 km/h 8 km/h 74% 0 mm
06:55 -1.1 °C -5.2 °C 1019.2 hPa Calm   8 km/h 74% 0 mm
07:05 -1.2 °C -5.3 °C 1019.2 hPa Calm   4.8 km/h 74% 0 mm
07:10 -1.3 °C -5.3 °C 1019.2 hPa WNW 1.6 km/h 4.8 km/h 74% 0 mm
07:15 -1.3 °C -5.3 °C 1019.2 hPa Calm   4.8 km/h 74% 0 mm
07:20 -1.3 °C -5.3 °C 1019.2 hPa Calm   3.2 km/h 74% 0 mm
07:25 -1.4 °C -5.5 °C 1019.2 hPa Calm   3.2 km/h 74% 0 mm
07:30 -1.5 °C -5.6 °C 1019.2 hPa Calm   3.2 km/h 74% 0 mm
07:35 -1.6 °C -5.6 °C 1019.5 hPa WNW 3.2 km/h 8 km/h 74% 0 mm
07:40 -1.7 °C -5.7 °C 1019.5 hPa Calm   8 km/h 74% 0 mm
07:45 -1.7 °C -5.7 °C 1019.5 hPa West 1.6 km/h 8 km/h 74% 0 mm
07:50 -1.8 °C -5.8 °C 1019.5 hPa West 1.6 km/h 8 km/h 74% 0 mm
07:55 -1.7 °C -5.7 °C 1019.5 hPa Calm   6.4 km/h 74% 0 mm
08:00 -1.6 °C -5.6 °C 1019.5 hPa WNW 4.8 km/h 9.7 km/h 74% 0 mm
08:05 -1.2 °C -5.3 °C 1019.5 hPa WNW 6.4 km/h 11.3 km/h 74% 0 mm
08:10 -0.9 °C -5.1 °C 1019.5 hPa WNW 6.4 km/h 12.9 km/h 73% 0 mm
08:15 -0.7 °C -5.1 °C 1019.5 hPa WNW 4.8 km/h 12.9 km/h 72% 0 mm
08:20 -0.4 °C -4.2 °C 1019.5 hPa NW 3.2 km/h 11.3 km/h 76% 0 mm
08:25 -0.1 °C -4.9 °C 1019.5 hPa WNW 3.2 km/h 9.7 km/h 70% 0 mm
08:30 0.1 °C -4.9 °C 1019.5 hPa WNW 6.4 km/h 9.7 km/h 69% 0 mm
08:35 0.3 °C -4.9 °C 1019.9 hPa WNW 6.4 km/h 9.7 km/h 68% 0 mm
08:40 0.4 °C -4.9 °C 1019.9 hPa WNW 6.4 km/h 12.9 km/h 67% 0 mm
08:45 0.7 °C -4.8 °C 1019.9 hPa NW 3.2 km/h 12.9 km/h 67% 0 mm
08:50 0.9 °C -4.7 °C 1019.9 hPa WNW 1.6 km/h 11.3 km/h 66% 0 mm
08:55 0.9 °C -4.9 °C 1019.5 hPa NW 9.7 km/h 14.5 km/h 65% 0 mm
09:00 1.1 °C -4.7 °C 1019.9 hPa NW 4.8 km/h 14.5 km/h 65% 0 mm
09:05 1 °C -4.8 °C 1019.9 hPa WNW 4.8 km/h 9.7 km/h 65% 0 mm
09:10 1.2 °C -4.7 °C 1019.9 hPa NW 3.2 km/h 12.9 km/h 65% 0 mm
09:15 1.3 °C -4.7 °C 1019.5 hPa WNW 1.6 km/h 12.9 km/h 64% 0 mm
09:20 1.3 °C -4.7 °C 1019.5 hPa WNW 3.2 km/h 12.9 km/h 64% 0 mm
09:25 1.7 °C -4.6 °C 1019.5 hPa NNW 4.8 km/h 12.9 km/h 63% 0 mm
09:30 1.9 °C -4.8 °C 1019.5 hPa NNW 4.8 km/h 14.5 km/h 61% 0 mm
09:35 2 °C -4.7 °C 1019.5 hPa NNW 6.4 km/h 14.5 km/h 61% 0 mm
09:40 2.1 °C -4.8 °C 1019.5 hPa NW 4.8 km/h 16.1 km/h 60% 0 mm
09:45 2.2 °C -4.6 °C 1019.9 hPa NW 1.6 km/h 16.1 km/h 61% 0 mm
09:50 2.6 °C -4.4 °C 1019.9 hPa NNE 1.6 km/h 9.7 km/h 60% 0 mm
09:55 2.8 °C -4.4 °C 1019.9 hPa North 1.6 km/h 6.4 km/h 59% 0 mm
10:00 2.9 °C -4.3 °C 1019.9 hPa NNW 1.6 km/h 9.7 km/h 59% 0 mm
10:05 2.6 °C -4.7 °C 1019.9 hPa NNW 1.6 km/h 16.1 km/h 59% 0 mm
10:10 2.6 °C -4.6 °C 1019.9 hPa NNW 1.6 km/h 16.1 km/h 59% 0 mm
10:15 2.8 °C -4.6 °C 1019.9 hPa NNW 4.8 km/h 9.7 km/h 58% 0 mm
10:20 2.6 °C -4.7 °C 1019.9 hPa WNW 4.8 km/h 9.7 km/h 59% 0 mm
10:25 2.6 °C -4.6 °C 1019.9 hPa NW 6.4 km/h 12.9 km/h 59% 0 mm
10:30 2.7 °C -4.9 °C 1019.9 hPa WNW 8 km/h 17.7 km/h 57% 0 mm
10:35 2.7 °C -4.9 °C 1019.5 hPa WNW 1.6 km/h 17.7 km/h 57% 0 mm
10:40 2.8 °C -4.6 °C 1019.9 hPa WNW 4.8 km/h 12.9 km/h 58% 0 mm
10:45 2.8 °C -5.1 °C 1019.9 hPa NNW 4.8 km/h 16.1 km/h 56% 0 mm
10:50 2.9 °C -5.2 °C 1019.5 hPa WNW 3.2 km/h 16.1 km/h 55% 0 mm
10:55 3.4 °C -5.1 °C 1019.5 hPa NNW 11.3 km/h 16.1 km/h 54% 0 mm
11:00 3.8 °C -5.2 °C 1019.5 hPa Calm   16.1 km/h 52% 0 mm
11:05 3.8 °C -4.9 °C 1019.5 hPa NNW 1.6 km/h 12.9 km/h 53% 0 mm
11:10 3.9 °C -5.1 °C 1019.5 hPa NNW 6.4 km/h 16.1 km/h 52% 0 mm
11:15 3.9 °C -5 °C 1019.5 hPa NNE 3.2 km/h 16.1 km/h 52% 0 mm
11:20 3.9 °C -5.8 °C 1019.2 hPa NW 9.7 km/h 19.3 km/h 49% 0 mm
11:25 3.8 °C -5.7 °C 1019.2 hPa West 4.8 km/h 19.3 km/h 50% 0 mm
11:30 3.7 °C -5.5 °C 1019.2 hPa NNW 1.6 km/h 16.1 km/h 51% 0 mm
11:35 3.9 °C -5.8 °C 1019.2 hPa NNE 8 km/h 17.7 km/h 49% 0 mm
11:40 4.2 °C -5.9 °C 1018.8 hPa North 3.2 km/h 17.7 km/h 48% 0 mm
11:45 4.6 °C -5.5 °C 1018.8 hPa NNE 4.8 km/h 12.9 km/h 48% 0 mm
11:50 4.9 °C -6 °C 1018.8 hPa North 3.2 km/h 12.9 km/h 45% 0 mm
11:55 4.5 °C -6.1 °C 1018.5 hPa NW 4.8 km/h 12.9 km/h 46% 0 mm
12:00 4.5 °C -6.1 °C 1018.8 hPa NNW 6.4 km/h 12.9 km/h 46% 0 mm
12:05 4.2 °C -6.2 °C 1018.8 hPa WNW 12.9 km/h 22.5 km/h 47% 0 mm
12:10 3.8 °C -5.9 °C 1018.8 hPa NW 8 km/h 22.5 km/h 49% 0 mm
12:15 3.8 °C -5.9 °C 1018.5 hPa West 9.7 km/h 20.9 km/h 49% 0 mm
12:20 3.9 °C -5.6 °C 1018.5 hPa WSW 8 km/h 16.1 km/h 50% 0 mm
12:25 4.4 °C -5.9 °C 1018.8 hPa NW 8 km/h 19.3 km/h 47% 0 mm
12:30 4.3 °C -6 °C 1018.8 hPa West 4.8 km/h 19.3 km/h 47% 0 mm
12:35 4.3 °C -5.7 °C 1018.5 hPa West 6.4 km/h 17.7 km/h 48% 0 mm
12:40 4.5 °C -5.6 °C 1018.5 hPa NW 9.7 km/h 20.9 km/h 48% 0 mm
12:45 4.4 °C -5.9 °C 1018.5 hPa North 3.2 km/h 20.9 km/h 47% 0 mm
12:50 4.9 °C -5.5 °C 1018.5 hPa North 3.2 km/h 9.7 km/h 47% 0 mm
12:55 5.3 °C -4.8 °C 1018.5 hPa NNW 4.8 km/h 14.5 km/h 48% 0 mm
13:00 5.5 °C -5.2 °C 1018.5 hPa ENE 4.8 km/h 14.5 km/h 46% 0 mm
13:05 5.6 °C -5.4 °C 1018.5 hPa North 6.4 km/h 12.9 km/h 45% 0 mm
13:10 5.4 °C -5.8 °C 1018.5 hPa NW 4.8 km/h 12.9 km/h 44% 0 mm
13:15 5.5 °C -5.5 °C 1018.5 hPa NNW 1.6 km/h 14.5 km/h 45% 0 mm
13:20 5.8 °C -5.8 °C 1018.2 hPa NNW 3.2 km/h 14.5 km/h 43% 0 mm
13:25 5.8 °C -5.8 °C 1018.2 hPa NNW 1.6 km/h 12.9 km/h 43% 0 mm
13:30 5.9 °C -6 °C 1018.5 hPa North 4.8 km/h 12.9 km/h 42% 0 mm
13:40 5.7 °C -5.9 °C 1018.2 hPa Calm   14.5 km/h 43% 0 mm
13:45 5.9 °C -5.4 °C 1018.2 hPa North 1.6 km/h 14.5 km/h 44% 0 mm
13:50 5.9 °C -6 °C 1017.8 hPa Calm   9.7 km/h 42% 0 mm
13:55 6.1 °C -5.9 °C 1017.8 hPa NNE 4.8 km/h 14.5 km/h 42% 0 mm
14:00 6.3 °C -6 °C 1017.8 hPa North 4.8 km/h 14.5 km/h 41% 0 mm
14:05 6.3 °C -6.3 °C 1017.5 hPa North 1.6 km/h 11.3 km/h 40% 0 mm
14:10 6.3 °C -6.3 °C 1017.5 hPa NW 3.2 km/h 8 km/h 40% 0 mm
14:15 6.4 °C -5.9 °C 1017.5 hPa NNW 3.2 km/h 11.3 km/h 41% 0 mm
14:20 6.3 °C -6.3 °C 1017.2 hPa NNW 3.2 km/h 11.3 km/h 40% 0 mm
14:25 6.4 °C -5.9 °C 1017.2 hPa North 1.6 km/h 11.3 km/h 41% 0 mm
14:30 6.6 °C -6.1 °C 1017.2 hPa North 6.4 km/h 12.9 km/h 40% 0 mm
14:35 6.7 °C -6.3 °C 1017.2 hPa NNW 1.6 km/h 12.9 km/h 39% 0 mm
14:40 6.6 °C -6.4 °C 1016.8 hPa North 4.8 km/h 8 km/h 39% 0 mm
14:45 6.6 °C -6.1 °C 1016.8 hPa NNE 1.6 km/h 9.7 km/h 40% 0 mm
14:50 6.4 °C -6.6 °C 1016.8 hPa NW 4.8 km/h 11.3 km/h 39% 0 mm
14:55 6.3 °C -6.3 °C 1016.5 hPa NW 4.8 km/h 14.5 km/h 40% 0 mm
15:00 6.1 °C -7.2 °C 1016.5 hPa WNW 4.8 km/h 14.5 km/h 38% 0 mm
15:05 6.2 °C -6.4 °C 1016.5 hPa NNE 4.8 km/h 12.9 km/h 40% 0 mm
15:10 6.6 °C -6.8 °C 1016.1 hPa NNE 1.6 km/h 14.5 km/h 38% 0 mm
15:15 6.9 °C -6.4 °C 1016.1 hPa North 1.6 km/h 14.5 km/h 38% 0 mm
15:20 7.1 °C -6.3 °C 1015.8 hPa NNE 3.2 km/h 14.5 km/h 38% 0 mm
15:25 7 °C -6 °C 1015.8 hPa North 4.8 km/h 14.5 km/h 39% 0 mm
15:30 6.9 °C -6.4 °C 1015.8 hPa NE 6.4 km/h 16.1 km/h 38% 0 mm
15:35 6.9 °C -6.1 °C 1015.8 hPa NNE 3.2 km/h 16.1 km/h 39% 0 mm
15:40 7 °C -6.7 °C 1015.8 hPa NNW 4.8 km/h 14.5 km/h 37% 0 mm
15:45 7 °C -6.3 °C 1015.5 hPa NNW 3.2 km/h 14.5 km/h 38% 0 mm
15:50 6.9 °C -6.4 °C 1015.5 hPa NNE 1.6 km/h 11.3 km/h 38% 0 mm
15:55 7.1 °C -6.7 °C 1015.5 hPa North 1.6 km/h 11.3 km/h 37% 0 mm
16:00 7.1 °C -6.3 °C 1015.5 hPa North 3.2 km/h 14.5 km/h 38% 0 mm
16:05 6.8 °C -6.8 °C 1015.5 hPa NNE 1.6 km/h 14.5 km/h 37% 0 mm
16:10 6.8 °C -6.2 °C 1015.5 hPa NNE 3.2 km/h 9.7 km/h 39% 0 mm
16:15 7 °C -6 °C 1015.5 hPa NNE 4.8 km/h 12.9 km/h 39% 0 mm
16:20 7 °C -6.7 °C 1015.5 hPa NNW 1.6 km/h 12.9 km/h 37% 0 mm
16:25 6.9 °C -6.8 °C 1015.5 hPa NNW 1.6 km/h 9.7 km/h 37% 0 mm
16:30 7.1 °C -7 °C 1015.5 hPa Calm   8 km/h 36% 0 mm
16:35 7.3 °C -6.4 °C 1015.5 hPa NNE 3.2 km/h 11.3 km/h 37% 0 mm
16:40 7.2 °C -6.5 °C 1015.5 hPa NNW 1.6 km/h 11.3 km/h 37% 0 mm
16:45 7.3 °C -7.1 °C 1015.5 hPa NNW 1.6 km/h 11.3 km/h 35% 0 mm
16:50 7.3 °C -6.8 °C 1015.5 hPa Calm   3.2 km/h 36% 0 mm
16:55 7.5 °C -6.6 °C 1015.5 hPa NNW 4.8 km/h 9.7 km/h 36% 0 mm
17:00 7.1 °C -7.3 °C 1015.1 hPa Calm   9.7 km/h 35% 0 mm
17:05 7.2 °C -5.8 °C 1015.1 hPa Calm   9.7 km/h 39% 0 mm
17:10 7.2 °C -6.5 °C 1015.1 hPa ENE 3.2 km/h 12.9 km/h 37% 0 mm
17:15 6.8 °C -6.6 °C 1015.1 hPa NE 1.6 km/h 12.9 km/h 38% 0 mm
17:20 7 °C -6.3 °C 1014.8 hPa Calm   12.9 km/h 38% 0 mm
17:25 7.2 °C -6.2 °C 1014.8 hPa North 1.6 km/h 8 km/h 38% 0 mm
17:30 7.3 °C -5.4 °C 1014.8 hPa North 1.6 km/h 12.9 km/h 40% 0 mm
17:35 7.3 °C -5.8 °C 1014.8 hPa NNE 4.8 km/h 14.5 km/h 39% 0 mm
17:40 7.1 °C -5.9 °C 1014.8 hPa Calm   14.5 km/h 39% 0 mm
17:45 7.1 °C -6.3 °C 1014.8 hPa NNE 3.2 km/h 11.3 km/h 38% 0 mm
17:50 7 °C -5.7 °C 1014.8 hPa Calm   11.3 km/h 40% 0 mm
17:55 7 °C -6.3 °C 1014.8 hPa NNW 1.6 km/h 8 km/h 38% 0 mm
18:00 6.9 °C -6.1 °C 1014.8 hPa North 1.6 km/h 6.4 km/h 39% 0 mm
18:05 6.8 °C -5.5 °C 1015.1 hPa Calm   6.4 km/h 41% 0 mm
18:10 6.8 °C -6.5 °C 1015.1 hPa Calm   6.4 km/h 38% 0 mm
18:15 6.7 °C -6.7 °C 1015.1 hPa Calm     38% 0 mm
18:20 6.3 °C -5.7 °C 1015.1 hPa Calm   8 km/h 42% 0 mm
18:25 6.2 °C -6.1 °C 1015.1 hPa Calm   8 km/h 41% 0 mm
18:30 5.9 °C -5.4 °C 1015.1 hPa ENE 1.6 km/h 4.8 km/h 44% 0 mm
18:35 5.7 °C -6.6 °C 1015.1 hPa Calm   4.8 km/h 41% 0 mm
18:40 5.6 °C -6.6 °C 1014.8 hPa NE 1.6 km/h 8 km/h 41% 0 mm
18:45 5.4 °C -6.8 °C 1015.1 hPa NE 1.6 km/h 8 km/h 41% 0 mm
18:50 5.1 °C -5.8 °C 1014.8 hPa Calm   6.4 km/h 45% 0 mm
18:55 4.7 °C -6.2 °C 1014.8 hPa NE 1.6 km/h 4.8 km/h 45% 0 mm
19:00 4.2 °C -5.6 °C 1014.8 hPa Calm   4.8 km/h 49% 0 mm
19:05 3.7 °C -4.7 °C 1014.8 hPa Calm   4.8 km/h 54% 0 mm
19:10 3.2 °C -6.5 °C 1014.8 hPa Calm   4.8 km/h 49% 0 mm
19:15 2.8 °C -5.8 °C 1014.8 hPa Calm   1.6 km/h 53% 0 mm
19:20 2.4 °C -6.4 °C 1014.8 hPa Calm   1.6 km/h 52% 0 mm
19:25 2.3 °C -6.8 °C 1014.8 hPa Calm   1.6 km/h 51% 0 mm
19:30 2.2 °C -6.9 °C 1014.8 hPa Calm     51% 0 mm
19:35 2.2 °C -6.4 °C 1014.8 hPa Calm     53% 0 mm
19:40 2.1 °C -5.6 °C 1015.1 hPa Calm     57% 0 mm
19:45 1.6 °C -6 °C 1015.1 hPa Calm     57% 0 mm
19:50 1.2 °C -5.4 °C 1015.1 hPa Calm     61% 0 mm
19:55 0.8 °C -5.8 °C 1015.1 hPa Calm     61% 0 mm
20:00 0.8 °C -5.4 °C 1015.1 hPa Calm     63% 0 mm
20:05 1.2 °C -6.4 °C 1015.1 hPa Calm     57% 0 mm
20:10 1.3 °C -5.8 °C 1014.8 hPa Calm     59% 0 mm
20:15 1.2 °C -5.7 °C 1014.8 hPa Calm     60% 0 mm
20:20 1.2 °C -5.9 °C 1014.8 hPa Calm   1.6 km/h 59% 0 mm
20:25 1.3 °C -5.2 °C 1014.8 hPa Calm   1.6 km/h 62% 0 mm
20:30 1.2 °C -5.5 °C 1014.8 hPa Calm   1.6 km/h 61% 0 mm
20:35 1.1 °C -6.1 °C 1014.8 hPa Calm   3.2 km/h 59% 0 mm
20:40 1.1 °C -6.2 °C 1014.8 hPa Calm   3.2 km/h 58% 0 mm
20:45 1.1 °C -5.8 °C 1014.8 hPa Calm   3.2 km/h 60% 0 mm
20:50 0.9 °C -6.4 °C 1014.8 hPa Calm   3.2 km/h 58% 0 mm
20:55 0.7 °C -5.9 °C 1014.8 hPa Calm   1.6 km/h 61% 0 mm
21:05 0.6 °C -6.3 °C 1014.8 hPa Calm   1.6 km/h 60% 0 mm
21:10 0.6 °C -5.8 °C 1014.8 hPa Calm   1.6 km/h 62% 0 mm
21:15 0.6 °C -5.6 °C 1014.8 hPa Calm   1.6 km/h 63% 0 mm
21:20 0.5 °C -6.2 °C 1014.8 hPa NE 1.6 km/h 3.2 km/h 61% 0 mm
21:25 0.5 °C -6.6 °C 1014.8 hPa Calm   3.2 km/h 59% 0 mm
21:30 0.5 °C -6.6 °C 1014.8 hPa Calm   3.2 km/h 59% 0 mm
21:35 0.4 °C -5.8 °C 1014.8 hPa Calm   3.2 km/h 63% 0 mm
21:40 0.3 °C -6.1 °C 1014.8 hPa Calm   1.6 km/h 62% 0 mm
21:45 0.4 °C -6.5 °C 1014.8 hPa Calm   3.2 km/h 60% 0 mm
21:50 0.3 °C -6.1 °C 1014.8 hPa Calm   3.2 km/h 62% 0 mm
21:55 0.2 °C -6.4 °C 1014.8 hPa Calm   3.2 km/h 61% 0 mm
22:00 0 °C -6 °C 1014.8 hPa Calm   1.6 km/h 64% 0 mm
22:05 -0.1 °C -6.3 °C 1014.8 hPa Calm   3.2 km/h 63% 0 mm
22:10 -0.1 °C -5.8 °C 1014.8 hPa Calm   3.2 km/h 65% 0 mm
22:15 -0.3 °C -6.3 °C 1014.8 hPa Calm   3.2 km/h 64% 0 mm
22:20 -0.7 °C -6.5 °C 1014.8 hPa Calm   3.2 km/h 65% 0 mm
22:25 -1.1 °C -6.4 °C 1014.8 hPa Calm   3.2 km/h 67% 0 mm
22:30 -0.4 °C -6.6 °C 1014.8 hPa Calm   3.2 km/h 63% 0 mm
22:35 -0.2 °C -6.4 °C 1014.8 hPa Calm   3.2 km/h 63% 0 mm
22:45 -0.8 °C -6.3 °C 1014.8 hPa Calm   1.6 km/h 66% 0 mm
22:50 -1 °C -6.2 °C 1014.8 hPa Calm   1.6 km/h 68% 0 mm
22:55 -1.1 °C -6.6 °C 1014.8 hPa Calm     66% 0 mm
23:00 -1.2 °C -6.9 °C 1014.8 hPa Calm     65% 0 mm
23:05 -1.3 °C -7 °C 1014.8 hPa Calm     65% 0 mm
23:10 -1.4 °C -7.2 °C 1014.8 hPa Calm     65% 0 mm
23:15 -1.6 °C -7.3 °C 1014.8 hPa Calm     65% 0 mm
23:20 -1.4 °C -6.9 °C 1014.8 hPa Calm     66% 0 mm
23:30 -1.6 °C -7.1 °C 1014.8 hPa Calm     66% 0 mm
23:40 -1.4 °C -6.8 °C 1014.4 hPa Calm     67% 0 mm
23:45 -1.6 °C -6.7 °C 1014.4 hPa Calm     68% 0 mm
23:50 -1.9 °C -6.7 °C 1014.8 hPa Calm     70% 0 mm
Westford Weather
Compliments of Weather Underground

 
 
Current Radar Loop:

Copyright © WestfordWeather.net 2007-2014. All rights reserved.